KCBM

Columbus AFB Airport

Columbus, Mississippi, USA
METAR KCBM 181556Z AUTO 00000KT 10SM OVC012 12/12 A3022 RMK AO2 CIG 011 RWY31C SLP237 T01200120 $
Observed Flight Rules
Dec-18 @ 15:56 UTC (25 minutes ago) Marginal Visual Flight Rules
Wind Visibility Clouds
Calm 10 miles
  • Overcast at 1,200' AGL
Temperatures Readings
Current 12°C / 54°F
Dewpoint 12°C / 54°F
Humidity 100%
Altimeter 30.22" Hg
Pressure 1023.7 hPa
Elevation 67
METAR KCBM 181556Z AUTO 00000KT 10SM OVC012 12/12 A3022 RMK AO2 CIG 011 RWY31C SLP237 T01200120 $
Observed Flight Rules
Dec-18 @ 15:56 UTC
(25 minutes ago)
MVFR
Wind Visibility
Calm 10 miles
Clouds
  • Overcast at 1,200' AGL
Temperature Dewpoint
12°C / 54°F 12°C / 54°F
Humidity Altimeter Pressure
100% 30.22" Hg 1023.7 hPa